sensor_id;sensor_type;location;lat;lon;timestamp;pressure;altitude;pressure_sealevel;temperature;humidity
31761;BME280;18335;51.486;7.562;2023-09-30T00:01:47;101154.78;;;14.50;100.00
31761;BME280;18335;51.486;7.562;2023-09-30T00:04:15;101154.03;;;14.32;100.00
31761;BME280;18335;51.486;7.562;2023-09-30T00:06:41;101158.53;;;14.41;100.00
31761;BME280;18335;51.486;7.562;2023-09-30T00:09:08;101162.31;;;14.40;100.00
31761;BME280;18335;51.486;7.562;2023-09-30T00:11:35;101170.06;;;14.45;100.00
31761;BME280;18335;51.486;7.562;2023-09-30T00:14:03;101163.03;;;14.42;100.00
31761;BME280;18335;51.486;7.562;2023-09-30T00:16:30;101168.00;;;14.47;100.00
31761;BME280;18335;51.486;7.562;2023-09-30T00:18:57;101152.38;;;14.39;100.00
31761;BME280;18335;51.486;7.562;2023-09-30T00:21:24;101155.28;;;14.46;100.00
31761;BME280;18335;51.486;7.562;2023-09-30T00:23:51;101154.69;;;14.26;100.00
31761;BME280;18335;51.486;7.562;2023-09-30T00:26:18;101157.28;;;14.27;100.00
31761;BME280;18335;51.486;7.562;2023-09-30T00:28:46;101158.47;;;14.25;100.00
31761;BME280;18335;51.486;7.562;2023-09-30T00:31:14;101168.28;;;14.27;100.00
31761;BME280;18335;51.486;7.562;2023-09-30T00:33:41;101178.28;;;14.45;100.00
31761;BME280;18335;51.486;7.562;2023-09-30T00:36:09;101184.47;;;14.38;100.00
31761;BME280;18335;51.486;7.562;2023-09-30T00:38:36;101177.88;;;14.31;100.00
31761;BME280;18335;51.486;7.562;2023-09-30T00:41:03;101171.41;;;14.32;100.00
31761;BME280;18335;51.486;7.562;2023-09-30T00:43:30;101169.94;;;14.12;100.00
31761;BME280;18335;51.486;7.562;2023-09-30T00:46:02;101173.38;;;14.14;100.00
31761;BME280;18335;51.486;7.562;2023-09-30T00:48:33;101173.91;;;14.18;100.00
31761;BME280;18335;51.486;7.562;2023-09-30T00:51:00;101161.03;;;14.18;100.00
31761;BME280;18335;51.486;7.562;2023-09-30T00:53:27;101163.63;;;14.28;100.00
31761;BME280;18335;51.486;7.562;2023-09-30T00:55:55;101163.13;;;14.24;100.00
31761;BME280;18335;51.486;7.562;2023-09-30T00:58:24;101174.50;;;14.46;100.00
31761;BME280;18335;51.486;7.562;2023-09-30T01:00:56;101171.63;;;14.13;100.00
31761;BME280;18335;51.486;7.562;2023-09-30T01:03:23;101165.91;;;14.40;100.00
31761;BME280;18335;51.486;7.562;2023-09-30T01:05:51;101150.97;;;14.35;100.00
31761;BME280;18335;51.486;7.562;2023-09-30T01:08:19;101136.13;;;14.12;100.00
31761;BME280;18335;51.486;7.562;2023-09-30T01:10:46;101134.28;;;14.20;100.00
31761;BME280;18335;51.486;7.562;2023-09-30T01:13:14;101146.97;;;14.21;100.00
31761;BME280;18335;51.486;7.562;2023-09-30T01:15:40;101161.44;;;14.39;100.00
31761;BME280;18335;51.486;7.562;2023-09-30T01:18:07;101171.06;;;14.44;100.00
31761;BME280;18335;51.486;7.562;2023-09-30T01:20:34;101180.38;;;14.51;100.00
31761;BME280;18335;51.486;7.562;2023-09-30T01:23:03;101177.97;;;14.48;100.00
31761;BME280;18335;51.486;7.562;2023-09-30T01:25:30;101171.41;;;14.49;100.00
31761;BME280;18335;51.486;7.562;2023-09-30T01:27:58;101167.66;;;14.50;100.00
31761;BME280;18335;51.486;7.562;2023-09-30T01:30:31;101169.00;;;14.46;100.00
31761;BME280;18335;51.486;7.562;2023-09-30T01:32:59;101166.13;;;14.55;100.00
31761;BME280;18335;51.486;7.562;2023-09-30T01:35:26;101154.94;;;14.32;100.00
31761;BME280;18335;51.486;7.562;2023-09-30T01:37:53;101158.75;;;14.64;100.00
31761;BME280;18335;51.486;7.562;2023-09-30T01:40:21;101158.34;;;14.43;100.00
31761;BME280;18335;51.486;7.562;2023-09-30T01:42:48;101152.19;;;14.40;100.00
31761;BME280;18335;51.486;7.562;2023-09-30T01:45:14;101157.00;;;14.47;100.00
31761;BME280;18335;51.486;7.562;2023-09-30T01:47:41;101152.13;;;14.24;100.00
31761;BME280;18335;51.486;7.562;2023-09-30T01:50:09;101164.81;;;14.25;100.00
31761;BME280;18335;51.486;7.562;2023-09-30T01:52:35;101163.47;;;14.29;100.00
31761;BME280;18335;51.486;7.562;2023-09-30T01:55:02;101167.31;;;14.36;100.00
31761;BME280;18335;51.486;7.562;2023-09-30T01:57:31;101161.09;;;14.34;100.00
31761;BME280;18335;51.486;7.562;2023-09-30T01:59:57;101168.66;;;14.49;100.00
31761;BME280;18335;51.486;7.562;2023-09-30T02:02:24;101173.63;;;14.37;100.00
31761;BME280;18335;51.486;7.562;2023-09-30T02:04:51;101192.34;;;14.33;100.00
31761;BME280;18335;51.486;7.562;2023-09-30T02:07:19;101198.88;;;14.40;100.00
31761;BME280;18335;51.486;7.562;2023-09-30T02:09:46;101204.38;;;14.49;100.00
31761;BME280;18335;51.486;7.562;2023-09-30T02:12:14;101188.75;;;14.49;100.00
31761;BME280;18335;51.486;7.562;2023-09-30T02:14:42;101155.22;;;14.29;100.00
31761;BME280;18335;51.486;7.562;2023-09-30T02:17:09;101176.44;;;14.11;100.00
31761;BME280;18335;51.486;7.562;2023-09-30T02:19:36;101190.22;;;14.27;100.00
31761;BME280;18335;51.486;7.562;2023-09-30T02:22:03;101206.28;;;14.14;100.00
31761;BME280;18335;51.486;7.562;2023-09-30T02:24:30;101204.34;;;14.07;100.00
31761;BME280;18335;51.486;7.562;2023-09-30T02:26:57;101198.41;;;14.19;100.00
31761;BME280;18335;51.486;7.562;2023-09-30T02:29:24;101184.22;;;14.24;100.00
31761;BME280;18335;51.486;7.562;2023-09-30T02:31:52;101188.59;;;14.01;100.00
31761;BME280;18335;51.486;7.562;2023-09-30T02:34:20;101183.47;;;14.14;100.00
31761;BME280;18335;51.486;7.562;2023-09-30T02:36:47;101191.41;;;14.25;100.00
31761;BME280;18335;51.486;7.562;2023-09-30T02:39:14;101196.19;;;14.15;100.00
31761;BME280;18335;51.486;7.562;2023-09-30T02:41:41;101185.75;;;14.18;100.00
31761;BME280;18335;51.486;7.562;2023-09-30T02:44:08;101181.41;;;14.16;100.00
31761;BME280;18335;51.486;7.562;2023-09-30T02:46:35;101173.56;;;14.21;100.00
31761;BME280;18335;51.486;7.562;2023-09-30T02:49:04;101172.38;;;14.23;100.00
31761;BME280;18335;51.486;7.562;2023-09-30T02:51:31;101158.44;;;14.17;100.00
31761;BME280;18335;51.486;7.562;2023-09-30T02:53:57;101174.34;;;14.05;100.00
31761;BME280;18335;51.486;7.562;2023-09-30T02:56:24;101169.41;;;14.09;100.00
31761;BME280;18335;51.486;7.562;2023-09-30T02:58:53;101170.06;;;14.03;100.00
31761;BME280;18335;51.486;7.562;2023-09-30T03:01:21;101183.09;;;14.01;100.00
31761;BME280;18335;51.486;7.562;2023-09-30T03:03:47;101180.81;;;13.96;100.00
31761;BME280;18335;51.486;7.562;2023-09-30T03:06:15;101189.34;;;13.85;100.00
31761;BME280;18335;51.486;7.562;2023-09-30T03:08:44;101196.53;;;13.86;100.00
31761;BME280;18335;51.486;7.562;2023-09-30T03:11:12;101198.16;;;13.97;100.00
31761;BME280;18335;51.486;7.562;2023-09-30T03:13:39;101202.44;;;13.99;100.00
31761;BME280;18335;51.486;7.562;2023-09-30T03:16:07;101205.06;;;13.75;100.00
31761;BME280;18335;51.486;7.562;2023-09-30T03:18:34;101203.78;;;13.95;100.00
31761;BME280;18335;51.486;7.562;2023-09-30T03:21:02;101204.44;;;13.89;100.00
31761;BME280;18335;51.486;7.562;2023-09-30T03:23:35;101183.53;;;13.88;100.00
31761;BME280;18335;51.486;7.562;2023-09-30T03:26:04;101191.81;;;13.96;100.00
31761;BME280;18335;51.486;7.562;2023-09-30T03:28:35;101181.47;;;13.90;100.00
31761;BME280;18335;51.486;7.562;2023-09-30T03:31:02;101181.69;;;13.97;100.00
31761;BME280;18335;51.486;7.562;2023-09-30T03:33:30;101182.13;;;13.84;100.00
31761;BME280;18335;51.486;7.562;2023-09-30T03:35:57;101176.97;;;13.81;100.00
31761;BME280;18335;51.486;7.562;2023-09-30T03:38:25;101185.41;;;13.88;100.00
31761;BME280;18335;51.486;7.562;2023-09-30T03:40:53;101189.91;;;13.63;100.00
31761;BME280;18335;51.486;7.562;2023-09-30T03:43:20;101179.72;;;13.81;100.00
31761;BME280;18335;51.486;7.562;2023-09-30T03:45:48;101185.22;;;13.81;100.00
31761;BME280;18335;51.486;7.562;2023-09-30T03:48:15;101183.13;;;13.75;100.00
31761;BME280;18335;51.486;7.562;2023-09-30T03:50:44;101184.19;;;13.82;100.00
31761;BME280;18335;51.486;7.562;2023-09-30T03:53:11;101177.97;;;13.72;100.00
31761;BME280;18335;51.486;7.562;2023-09-30T03:55:37;101175.91;;;13.74;100.00
31761;BME280;18335;51.486;7.562;2023-09-30T03:58:05;101180.22;;;13.76;100.00
31761;BME280;18335;51.486;7.562;2023-09-30T04:00:32;101187.50;;;13.94;100.00
31761;BME280;18335;51.486;7.562;2023-09-30T04:02:59;101188.91;;;13.98;100.00
31761;BME280;18335;51.486;7.562;2023-09-30T04:05:26;101179.84;;;14.05;100.00
31761;BME280;18335;51.486;7.562;2023-09-30T04:07:55;101180.00;;;14.04;100.00
31761;BME280;18335;51.486;7.562;2023-09-30T04:10:22;101173.28;;;13.98;100.00
31761;BME280;18335;51.486;7.562;2023-09-30T04:12:49;101172.38;;;13.90;100.00
31761;BME280;18335;51.486;7.562;2023-09-30T04:15:17;101178.72;;;13.82;100.00
31761;BME280;18335;51.486;7.562;2023-09-30T04:17:44;101184.63;;;13.69;100.00
31761;BME280;18335;51.486;7.562;2023-09-30T04:20:11;101191.78;;;13.62;100.00
31761;BME280;18335;51.486;7.562;2023-09-30T04:22:42;101182.47;;;13.81;100.00
31761;BME280;18335;51.486;7.562;2023-09-30T04:25:11;101184.13;;;13.74;100.00
31761;BME280;18335;51.486;7.562;2023-09-30T04:27:41;101190.09;;;13.61;100.00
31761;BME280;18335;51.486;7.562;2023-09-30T04:30:10;101188.84;;;13.56;100.00
31761;BME280;18335;51.486;7.562;2023-09-30T04:32:38;101183.38;;;13.56;100.00
31761;BME280;18335;51.486;7.562;2023-09-30T04:35:06;101181.63;;;13.55;100.00
31761;BME280;18335;51.486;7.562;2023-09-30T04:37:33;101180.81;;;13.62;100.00
31761;BME280;18335;51.486;7.562;2023-09-30T04:40:03;101182.88;;;13.60;100.00
31761;BME280;18335;51.486;7.562;2023-09-30T04:42:38;101183.41;;;13.64;100.00
31761;BME280;18335;51.486;7.562;2023-09-30T04:45:05;101188.53;;;13.59;100.00
31761;BME280;18335;51.486;7.562;2023-09-30T04:47:33;101198.84;;;13.65;100.00
31761;BME280;18335;51.486;7.562;2023-09-30T04:50:01;101206.72;;;13.68;100.00
31761;BME280;18335;51.486;7.562;2023-09-30T04:52:30;101205.09;;;13.49;100.00
31761;BME280;18335;51.486;7.562;2023-09-30T04:54:57;101206.69;;;13.60;100.00
31761;BME280;18335;51.486;7.562;2023-09-30T04:57:25;101200.16;;;13.35;100.00
31761;BME280;18335;51.486;7.562;2023-09-30T04:59:52;101204.69;;;13.44;100.00
31761;BME280;18335;51.486;7.562;2023-09-30T05:02:19;101212.63;;;13.29;100.00
31761;BME280;18335;51.486;7.562;2023-09-30T05:04:46;101207.56;;;13.35;100.00
31761;BME280;18335;51.486;7.562;2023-09-30T05:07:14;101218.06;;;13.21;100.00
31761;BME280;18335;51.486;7.562;2023-09-30T05:09:40;101225.31;;;13.30;100.00
31761;BME280;18335;51.486;7.562;2023-09-30T05:12:08;101232.38;;;12.98;100.00
31761;BME280;18335;51.486;7.562;2023-09-30T05:14:35;101235.38;;;13.22;100.00
31761;BME280;18335;51.486;7.562;2023-09-30T05:17:02;101226.09;;;13.05;100.00
31761;BME280;18335;51.486;7.562;2023-09-30T05:19:29;101224.81;;;13.09;100.00
31761;BME280;18335;51.486;7.562;2023-09-30T05:21:57;101221.06;;;13.10;100.00
31761;BME280;18335;51.486;7.562;2023-09-30T05:24:28;101228.97;;;13.13;100.00
31761;BME280;18335;51.486;7.562;2023-09-30T05:26:55;101226.91;;;13.15;100.00
31761;BME280;18335;51.486;7.562;2023-09-30T05:29:22;101240.41;;;12.99;100.00
31761;BME280;18335;51.486;7.562;2023-09-30T05:31:49;101248.56;;;12.91;100.00
31761;BME280;18335;51.486;7.562;2023-09-30T05:34:16;101241.78;;;12.95;100.00
31761;BME280;18335;51.486;7.562;2023-09-30T05:36:42;101231.75;;;13.04;100.00
31761;BME280;18335;51.486;7.562;2023-09-30T05:39:09;101240.09;;;13.02;100.00
31761;BME280;18335;51.486;7.562;2023-09-30T05:41:39;101233.19;;;13.08;100.00
31761;BME280;18335;51.486;7.562;2023-09-30T05:44:07;101234.56;;;13.12;100.00
31761;BME280;18335;51.486;7.562;2023-09-30T05:46:34;101244.88;;;13.00;100.00
31761;BME280;18335;51.486;7.562;2023-09-30T05:49:01;101244.03;;;13.17;100.00
31761;BME280;18335;51.486;7.562;2023-09-30T05:51:32;101248.06;;;13.23;100.00
31761;BME280;18335;51.486;7.562;2023-09-30T05:53:59;101254.06;;;13.26;100.00
31761;BME280;18335;51.486;7.562;2023-09-30T05:56:26;101251.56;;;13.15;100.00
31761;BME280;18335;51.486;7.562;2023-09-30T05:58:54;101244.19;;;13.34;100.00
31761;BME280;18335;51.486;7.562;2023-09-30T06:01:21;101252.72;;;13.30;100.00
31761;BME280;18335;51.486;7.562;2023-09-30T06:03:48;101243.56;;;13.40;100.00
31761;BME280;18335;51.486;7.562;2023-09-30T06:06:15;101234.75;;;13.54;100.00
31761;BME280;18335;51.486;7.562;2023-09-30T06:08:42;101240.41;;;13.52;100.00
31761;BME280;18335;51.486;7.562;2023-09-30T06:11:16;101231.41;;;13.68;100.00
31761;BME280;18335;51.486;7.562;2023-09-30T06:13:43;101246.25;;;13.83;100.00
31761;BME280;18335;51.486;7.562;2023-09-30T06:16:12;101239.38;;;13.79;100.00
31761;BME280;18335;51.486;7.562;2023-09-30T06:18:38;101241.22;;;13.70;100.00
31761;BME280;18335;51.486;7.562;2023-09-30T06:21:05;101241.25;;;13.78;100.00
31761;BME280;18335;51.486;7.562;2023-09-30T06:23:32;101232.50;;;14.01;100.00
31761;BME280;18335;51.486;7.562;2023-09-30T06:25:59;101231.69;;;14.16;100.00
31761;BME280;18335;51.486;7.562;2023-09-30T06:28:27;101225.97;;;14.10;100.00
31761;BME280;18335;51.486;7.562;2023-09-30T06:30:56;101232.00;;;14.13;100.00
31761;BME280;18335;51.486;7.562;2023-09-30T06:33:25;101235.81;;;14.12;100.00
31761;BME280;18335;51.486;7.562;2023-09-30T06:35:54;101243.72;;;14.23;100.00
31761;BME280;18335;51.486;7.562;2023-09-30T06:38:21;101242.22;;;14.29;100.00
31761;BME280;18335;51.486;7.562;2023-09-30T06:40:48;101239.78;;;14.18;100.00
31761;BME280;18335;51.486;7.562;2023-09-30T06:43:15;101242.13;;;14.13;100.00
31761;BME280;18335;51.486;7.562;2023-09-30T06:45:43;101247.56;;;14.30;100.00
31761;BME280;18335;51.486;7.562;2023-09-30T06:48:11;101248.28;;;14.32;100.00
31761;BME280;18335;51.486;7.562;2023-09-30T06:50:43;101264.75;;;14.32;100.00
31761;BME280;18335;51.486;7.562;2023-09-30T06:53:11;101255.50;;;14.33;100.00
31761;BME280;18335;51.486;7.562;2023-09-30T06:55:38;101272.78;;;14.76;100.00
31761;BME280;18335;51.486;7.562;2023-09-30T06:58:05;101271.81;;;14.93;100.00
31761;BME280;18335;51.486;7.562;2023-09-30T07:00:33;101265.78;;;14.98;100.00
31761;BME280;18335;51.486;7.562;2023-09-30T07:03:00;101267.88;;;14.95;100.00
31761;BME280;18335;51.486;7.562;2023-09-30T07:05:27;101273.56;;;15.02;100.00
31761;BME280;18335;51.486;7.562;2023-09-30T07:07:56;101280.97;;;15.34;100.00
31761;BME280;18335;51.486;7.562;2023-09-30T07:10:23;101283.34;;;15.21;100.00
31761;BME280;18335;51.486;7.562;2023-09-30T07:12:50;101279.25;;;15.25;100.00
31761;BME280;18335;51.486;7.562;2023-09-30T07:15:17;101288.19;;;15.43;100.00
31761;BME280;18335;51.486;7.562;2023-09-30T07:17:44;101289.22;;;15.42;100.00
31761;BME280;18335;51.486;7.562;2023-09-30T07:20:13;101294.56;;;15.52;100.00
31761;BME280;18335;51.486;7.562;2023-09-30T07:22:40;101297.66;;;15.48;100.00
31761;BME280;18335;51.486;7.562;2023-09-30T07:25:09;101300.06;;;15.52;100.00
31761;BME280;18335;51.486;7.562;2023-09-30T07:27:35;101304.50;;;15.44;100.00
31761;BME280;18335;51.486;7.562;2023-09-30T07:30:02;101313.66;;;15.53;100.00
31761;BME280;18335;51.486;7.562;2023-09-30T07:32:32;101318.13;;;15.54;100.00
31761;BME280;18335;51.486;7.562;2023-09-30T07:34:59;101317.28;;;15.62;100.00
31761;BME280;18335;51.486;7.562;2023-09-30T07:37:25;101315.53;;;15.69;100.00
31761;BME280;18335;51.486;7.562;2023-09-30T07:39:52;101315.88;;;15.82;100.00
31761;BME280;18335;51.486;7.562;2023-09-30T07:42:20;101322.59;;;15.87;100.00
31761;BME280;18335;51.486;7.562;2023-09-30T07:44:47;101328.97;;;15.80;100.00
31761;BME280;18335;51.486;7.562;2023-09-30T07:47:15;101330.00;;;15.71;100.00
31761;BME280;18335;51.486;7.562;2023-09-30T07:49:42;101338.25;;;15.63;100.00
31761;BME280;18335;51.486;7.562;2023-09-30T07:52:09;101327.25;;;15.79;100.00
31761;BME280;18335;51.486;7.562;2023-09-30T07:54:36;101335.66;;;15.93;100.00
31761;BME280;18335;51.486;7.562;2023-09-30T07:57:03;101334.63;;;15.94;100.00
31761;BME280;18335;51.486;7.562;2023-09-30T07:59:31;101338.41;;;16.01;100.00
31761;BME280;18335;51.486;7.562;2023-09-30T08:01:59;101333.44;;;15.73;100.00
31761;BME280;18335;51.486;7.562;2023-09-30T08:04:25;101331.38;;;15.83;100.00
31761;BME280;18335;51.486;7.562;2023-09-30T08:06:52;101333.59;;;15.95;100.00
31761;BME280;18335;51.486;7.562;2023-09-30T08:09:19;101329.09;;;16.19;100.00
31761;BME280;18335;51.486;7.562;2023-09-30T08:11:48;101331.13;;;16.25;100.00
31761;BME280;18335;51.486;7.562;2023-09-30T08:14:16;101338.19;;;16.27;100.00
31761;BME280;18335;51.486;7.562;2023-09-30T08:16:44;101335.41;;;16.35;100.00
31761;BME280;18335;51.486;7.562;2023-09-30T08:19:11;101334.19;;;16.54;100.00
31761;BME280;18335;51.486;7.562;2023-09-30T08:21:38;101347.56;;;16.49;100.00
31761;BME280;18335;51.486;7.562;2023-09-30T08:24:06;101337.59;;;16.56;100.00
31761;BME280;18335;51.486;7.562;2023-09-30T08:26:33;101346.03;;;17.01;100.00
31761;BME280;18335;51.486;7.562;2023-09-30T08:29:01;101333.69;;;16.89;100.00
31761;BME280;18335;51.486;7.562;2023-09-30T08:31:28;101334.91;;;16.87;100.00
31761;BME280;18335;51.486;7.562;2023-09-30T08:33:56;101336.31;;;17.13;100.00
31761;BME280;18335;51.486;7.562;2023-09-30T08:36:22;101341.47;;;17.17;100.00
31761;BME280;18335;51.486;7.562;2023-09-30T08:38:50;101333.31;;;17.23;100.00
31761;BME280;18335;51.486;7.562;2023-09-30T08:41:24;101336.97;;;17.38;100.00
31761;BME280;18335;51.486;7.562;2023-09-30T08:43:55;101335.50;;;17.58;100.00
31761;BME280;18335;51.486;7.562;2023-09-30T08:46:24;101343.72;;;17.66;100.00
31761;BME280;18335;51.486;7.562;2023-09-30T08:48:52;101335.59;;;17.20;100.00
31761;BME280;18335;51.486;7.562;2023-09-30T08:51:21;101344.72;;;17.20;100.00
31761;BME280;18335;51.486;7.562;2023-09-30T08:53:49;101347.19;;;17.07;100.00
31761;BME280;18335;51.486;7.562;2023-09-30T08:56:17;101343.63;;;17.29;100.00
31761;BME280;18335;51.486;7.562;2023-09-30T08:58:45;101346.84;;;17.63;100.00
31761;BME280;18335;51.486;7.562;2023-09-30T09:01:12;101337.97;;;17.45;100.00
31761;BME280;18335;51.486;7.562;2023-09-30T09:03:39;101350.75;;;17.46;100.00
31761;BME280;18335;51.486;7.562;2023-09-30T09:06:06;101337.44;;;17.50;100.00
31761;BME280;18335;51.486;7.562;2023-09-30T09:08:34;101346.06;;;17.24;100.00
31761;BME280;18335;51.486;7.562;2023-09-30T09:11:01;101348.59;;;17.34;100.00
31761;BME280;18335;51.486;7.562;2023-09-30T09:13:45;101338.03;;;18.05;100.00
31761;BME280;18335;51.486;7.562;2023-09-30T09:16:15;101334.25;;;17.84;100.00
31761;BME280;18335;51.486;7.562;2023-09-30T09:18:43;101327.59;;;17.93;100.00
31761;BME280;18335;51.486;7.562;2023-09-30T09:21:14;101316.97;;;18.19;100.00
31761;BME280;18335;51.486;7.562;2023-09-30T09:23:45;101317.56;;;18.29;100.00
31761;BME280;18335;51.486;7.562;2023-09-30T09:26:13;101304.22;;;18.18;100.00
31761;BME280;18335;51.486;7.562;2023-09-30T09:28:49;101316.41;;;18.09;100.00
31761;BME280;18335;51.486;7.562;2023-09-30T09:31:20;101311.91;;;18.08;100.00
31761;BME280;18335;51.486;7.562;2023-09-30T09:33:48;101305.16;;;18.25;100.00
31761;BME280;18335;51.486;7.562;2023-09-30T09:36:15;101309.28;;;18.29;100.00
31761;BME280;18335;51.486;7.562;2023-09-30T09:38:47;101311.50;;;18.34;100.00
31761;BME280;18335;51.486;7.562;2023-09-30T09:41:16;101314.06;;;18.50;100.00
31761;BME280;18335;51.486;7.562;2023-09-30T09:43:43;101316.78;;;18.94;100.00
31761;BME280;18335;51.486;7.562;2023-09-30T09:46:10;101310.06;;;19.39;100.00
31761;BME280;18335;51.486;7.562;2023-09-30T09:48:40;101313.84;;;19.31;100.00
31761;BME280;18335;51.486;7.562;2023-09-30T09:51:09;101316.69;;;19.38;100.00
31761;BME280;18335;51.486;7.562;2023-09-30T09:53:39;101305.34;;;19.75;100.00
31761;BME280;18335;51.486;7.562;2023-09-30T09:56:09;101308.78;;;19.77;100.00
31761;BME280;18335;51.486;7.562;2023-09-30T09:58:39;101306.84;;;19.77;100.00
31761;BME280;18335;51.486;7.562;2023-09-30T10:01:09;101303.81;;;19.94;100.00
31761;BME280;18335;51.486;7.562;2023-09-30T10:03:37;101297.34;;;20.35;100.00
31761;BME280;18335;51.486;7.562;2023-09-30T10:06:05;101293.53;;;20.15;100.00
31761;BME280;18335;51.486;7.562;2023-09-30T10:08:36;101299.75;;;20.45;100.00
31761;BME280;18335;51.486;7.562;2023-09-30T10:11:05;101292.44;;;20.78;100.00
31761;BME280;18335;51.486;7.562;2023-09-30T10:13:53;101288.66;;;20.92;100.00
31761;BME280;18335;51.486;7.562;2023-09-30T10:16:49;101296.50;;;20.41;100.00
31761;BME280;18335;51.486;7.562;2023-09-30T10:19:18;101303.53;;;20.16;100.00
31761;BME280;18335;51.486;7.562;2023-09-30T10:22:22;101316.06;;;20.68;100.00
31761;BME280;18335;51.486;7.562;2023-09-30T10:24:51;101326.13;;;20.13;100.00
31761;BME280;18335;51.486;7.562;2023-09-30T10:27:29;101335.22;;;20.28;100.00
31761;BME280;18335;51.486;7.562;2023-09-30T10:30:01;101333.59;;;20.40;100.00
31761;BME280;18335;51.486;7.562;2023-09-30T10:33:13;101309.09;;;20.44;100.00
31761;BME280;18335;51.486;7.562;2023-09-30T10:35:45;101301.91;;;20.90;100.00
31761;BME280;18335;51.486;7.562;2023-09-30T10:38:37;101310.84;;;20.92;100.00
31761;BME280;18335;51.486;7.562;2023-09-30T10:41:08;101308.00;;;20.79;100.00
31761;BME280;18335;51.486;7.562;2023-09-30T10:43:35;101323.94;;;20.64;100.00
31761;BME280;18335;51.486;7.562;2023-09-30T10:46:05;101316.28;;;20.73;100.00
31761;BME280;18335;51.486;7.562;2023-09-30T10:48:51;101327.09;;;20.55;100.00
31761;BME280;18335;51.486;7.562;2023-09-30T10:51:19;101333.59;;;19.64;100.00
31761;BME280;18335;51.486;7.562;2023-09-30T10:53:48;101338.47;;;19.83;100.00
31761;BME280;18335;51.486;7.562;2023-09-30T10:56:17;101330.34;;;19.81;100.00
31761;BME280;18335;51.486;7.562;2023-09-30T10:58:45;101344.06;;;19.68;100.00
31761;BME280;18335;51.486;7.562;2023-09-30T11:01:15;101341.69;;;19.65;100.00
31761;BME280;18335;51.486;7.562;2023-09-30T11:03:42;101340.38;;;19.82;100.00
31761;BME280;18335;51.486;7.562;2023-09-30T11:06:12;101340.25;;;19.69;100.00
31761;BME280;18335;51.486;7.562;2023-09-30T11:08:45;101323.88;;;19.32;100.00
31761;BME280;18335;51.486;7.562;2023-09-30T11:11:12;101326.63;;;19.32;100.00
31761;BME280;18335;51.486;7.562;2023-09-30T11:13:40;101318.47;;;19.66;100.00
31761;BME280;18335;51.486;7.562;2023-09-30T11:16:09;101310.97;;;19.24;100.00
31761;BME280;18335;51.486;7.562;2023-09-30T11:18:37;101313.63;;;19.47;100.00
31761;BME280;18335;51.486;7.562;2023-09-30T11:21:06;101307.72;;;19.57;100.00
31761;BME280;18335;51.486;7.562;2023-09-30T11:23:34;101303.91;;;19.79;100.00
31761;BME280;18335;51.486;7.562;2023-09-30T11:26:01;101312.06;;;19.45;100.00
31761;BME280;18335;51.486;7.562;2023-09-30T11:28:36;101307.22;;;19.11;100.00
31761;BME280;18335;51.486;7.562;2023-09-30T11:31:08;101307.44;;;18.95;100.00
31761;BME280;18335;51.486;7.562;2023-09-30T11:33:50;101303.53;;;19.40;100.00
31761;BME280;18335;51.486;7.562;2023-09-30T11:36:19;101293.84;;;19.35;100.00
31761;BME280;18335;51.486;7.562;2023-09-30T11:38:47;101292.41;;;19.18;100.00
31761;BME280;18335;51.486;7.562;2023-09-30T11:41:15;101293.00;;;19.14;100.00
31761;BME280;18335;51.486;7.562;2023-09-30T11:44:01;101289.50;;;19.41;100.00
31761;BME280;18335;51.486;7.562;2023-09-30T11:46:30;101286.19;;;18.95;100.00
31761;BME280;18335;51.486;7.562;2023-09-30T11:49:02;101280.63;;;19.31;100.00
31761;BME280;18335;51.486;7.562;2023-09-30T11:51:42;101286.34;;;19.44;100.00
31761;BME280;18335;51.486;7.562;2023-09-30T11:54:11;101284.69;;;19.14;100.00
31761;BME280;18335;51.486;7.562;2023-09-30T11:56:40;101288.91;;;19.10;100.00
31761;BME280;18335;51.486;7.562;2023-09-30T11:59:07;101280.72;;;19.02;100.00
31761;BME280;18335;51.486;7.562;2023-09-30T12:01:36;101284.16;;;19.04;100.00
31761;BME280;18335;51.486;7.562;2023-09-30T12:04:05;101286.44;;;19.00;100.00
31761;BME280;18335;51.486;7.562;2023-09-30T12:06:32;101294.75;;;19.57;100.00
31761;BME280;18335;51.486;7.562;2023-09-30T12:08:59;101288.94;;;19.31;100.00
31761;BME280;18335;51.486;7.562;2023-09-30T12:11:28;101283.78;;;19.28;100.00
31761;BME280;18335;51.486;7.562;2023-09-30T12:13:55;101289.09;;;19.29;100.00
31761;BME280;18335;51.486;7.562;2023-09-30T12:16:22;101283.13;;;19.26;100.00
31761;BME280;18335;51.486;7.562;2023-09-30T12:18:49;101289.25;;;19.85;100.00
31761;BME280;18335;51.486;7.562;2023-09-30T12:21:18;101277.84;;;20.01;100.00
31761;BME280;18335;51.486;7.562;2023-09-30T12:23:45;101273.69;;;20.39;100.00
31761;BME280;18335;51.486;7.562;2023-09-30T12:26:14;101271.50;;;20.07;100.00
31761;BME280;18335;51.486;7.562;2023-09-30T12:28:43;101275.50;;;20.26;100.00
31761;BME280;18335;51.486;7.562;2023-09-30T12:31:10;101262.47;;;20.54;100.00
31761;BME280;18335;51.486;7.562;2023-09-30T12:33:37;101266.69;;;20.50;100.00
31761;BME280;18335;51.486;7.562;2023-09-30T12:36:04;101258.97;;;20.39;100.00
31761;BME280;18335;51.486;7.562;2023-09-30T12:38:32;101250.19;;;20.76;100.00
31761;BME280;18335;51.486;7.562;2023-09-30T12:40:59;101241.69;;;20.84;100.00
31761;BME280;18335;51.486;7.562;2023-09-30T12:43:26;101243.22;;;20.93;100.00
31761;BME280;18335;51.486;7.562;2023-09-30T12:45:53;101236.13;;;20.78;100.00
31761;BME280;18335;51.486;7.562;2023-09-30T12:48:20;101231.66;;;20.36;100.00